sensor_id;sensor_type;location;lat;lon;timestamp;P1;durP1;ratioP1;P2;durP2;ratioP2
72926;SDS011;61071;51.618;19.388;2023-01-06T00:01:14;49.05;;;22.45;;
72926;SDS011;61071;51.618;19.388;2023-01-06T00:03:42;17.08;;;8.48;;
72926;SDS011;61071;51.618;19.388;2023-01-06T00:06:09;19.38;;;9.70;;
72926;SDS011;61071;51.618;19.388;2023-01-06T00:08:36;19.27;;;10.75;;
72926;SDS011;61071;51.618;19.388;2023-01-06T00:11:03;14.05;;;6.30;;
72926;SDS011;61071;51.618;19.388;2023-01-06T00:13:34;23.88;;;9.45;;
72926;SDS011;61071;51.618;19.388;2023-01-06T00:16:07;9.82;;;6.05;;
72926;SDS011;61071;51.618;19.388;2023-01-06T00:18:37;8.82;;;5.65;;
72926;SDS011;61071;51.618;19.388;2023-01-06T00:21:03;7.45;;;5.00;;
72926;SDS011;61071;51.618;19.388;2023-01-06T00:23:30;9.93;;;6.88;;
72926;SDS011;61071;51.618;19.388;2023-01-06T00:25:57;21.77;;;8.88;;
72926;SDS011;61071;51.618;19.388;2023-01-06T00:28:22;9.00;;;6.18;;
72926;SDS011;61071;51.618;19.388;2023-01-06T00:30:48;13.70;;;8.05;;
72926;SDS011;61071;51.618;19.388;2023-01-06T00:33:14;10.88;;;7.80;;
72926;SDS011;61071;51.618;19.388;2023-01-06T00:35:40;12.48;;;8.50;;
72926;SDS011;61071;51.618;19.388;2023-01-06T00:38:06;12.10;;;7.15;;
72926;SDS011;61071;51.618;19.388;2023-01-06T00:40:31;29.80;;;10.23;;
72926;SDS011;61071;51.618;19.388;2023-01-06T00:42:57;17.33;;;7.68;;
72926;SDS011;61071;51.618;19.388;2023-01-06T00:45:22;11.55;;;6.90;;
72926;SDS011;61071;51.618;19.388;2023-01-06T00:47:48;15.93;;;9.15;;
72926;SDS011;61071;51.618;19.388;2023-01-06T00:50:13;11.23;;;6.50;;
72926;SDS011;61071;51.618;19.388;2023-01-06T00:52:39;11.35;;;7.90;;
72926;SDS011;61071;51.618;19.388;2023-01-06T00:55:05;13.85;;;7.50;;
72926;SDS011;61071;51.618;19.388;2023-01-06T00:57:31;12.07;;;7.28;;
72926;SDS011;61071;51.618;19.388;2023-01-06T00:59:57;9.10;;;5.75;;
72926;SDS011;61071;51.618;19.388;2023-01-06T01:02:23;11.68;;;8.07;;
72926;SDS011;61071;51.618;19.388;2023-01-06T01:04:48;12.18;;;6.57;;
72926;SDS011;61071;51.618;19.388;2023-01-06T01:07:14;10.68;;;6.25;;
72926;SDS011;61071;51.618;19.388;2023-01-06T01:09:40;9.05;;;6.20;;
72926;SDS011;61071;51.618;19.388;2023-01-06T01:12:05;7.68;;;5.03;;
72926;SDS011;61071;51.618;19.388;2023-01-06T01:14:41;5.63;;;4.32;;
72926;SDS011;61071;51.618;19.388;2023-01-06T01:17:12;7.55;;;4.68;;
72926;SDS011;61071;51.618;19.388;2023-01-06T01:19:47;7.47;;;4.63;;
72926;SDS011;61071;51.618;19.388;2023-01-06T01:22:14;7.40;;;4.15;;
72926;SDS011;61071;51.618;19.388;2023-01-06T01:24:40;9.20;;;5.70;;
72926;SDS011;61071;51.618;19.388;2023-01-06T01:27:05;12.68;;;8.10;;
72926;SDS011;61071;51.618;19.388;2023-01-06T01:29:31;12.90;;;8.30;;
72926;SDS011;61071;51.618;19.388;2023-01-06T01:31:57;20.10;;;9.98;;
72926;SDS011;61071;51.618;19.388;2023-01-06T01:34:23;13.45;;;7.40;;
72926;SDS011;61071;51.618;19.388;2023-01-06T01:36:50;15.85;;;9.90;;
72926;SDS011;61071;51.618;19.388;2023-01-06T01:39:19;11.95;;;8.15;;
72926;SDS011;61071;51.618;19.388;2023-01-06T01:41:50;10.05;;;7.05;;
72926;SDS011;61071;51.618;19.388;2023-01-06T01:53:03;49.45;;;20.92;;
72926;SDS011;61071;51.618;19.388;2023-01-06T01:55:34;17.00;;;5.85;;
72926;SDS011;61071;51.618;19.388;2023-01-06T01:58:07;20.33;;;7.60;;
72926;SDS011;61071;51.618;19.388;2023-01-06T02:00:49;7.85;;;4.93;;
72926;SDS011;61071;51.618;19.388;2023-01-06T02:03:17;23.88;;;8.50;;
72926;SDS011;61071;51.618;19.388;2023-01-06T02:05:47;17.50;;;7.68;;
72926;SDS011;61071;51.618;19.388;2023-01-06T02:08:38;11.07;;;6.38;;
72926;SDS011;61071;51.618;19.388;2023-01-06T02:11:10;7.35;;;4.43;;
72926;SDS011;61071;51.618;19.388;2023-01-06T02:13:36;7.43;;;4.50;;
72926;SDS011;61071;51.618;19.388;2023-01-06T02:25:33;7.50;;;4.43;;
72926;SDS011;61071;51.618;19.388;2023-01-06T02:29:18;6.93;;;3.40;;
72926;SDS011;61071;51.618;19.388;2023-01-06T02:44:07;15.45;;;6.68;;
72926;SDS011;61071;51.618;19.388;2023-01-06T02:55:21;5.32;;;3.60;;
72926;SDS011;61071;51.618;19.388;2023-01-06T02:58:01;5.75;;;4.38;;
72926;SDS011;61071;51.618;19.388;2023-01-06T03:00:33;7.55;;;4.00;;
72926;SDS011;61071;51.618;19.388;2023-01-06T03:03:06;7.80;;;4.40;;
72926;SDS011;61071;51.618;19.388;2023-01-06T03:05:38;9.95;;;4.78;;
72926;SDS011;61071;51.618;19.388;2023-01-06T03:08:08;9.18;;;4.60;;
72926;SDS011;61071;51.618;19.388;2023-01-06T03:10:50;7.78;;;3.90;;
72926;SDS011;61071;51.618;19.388;2023-01-06T03:13:23;6.70;;;4.22;;
72926;SDS011;61071;51.618;19.388;2023-01-06T03:16:21;5.60;;;4.30;;
72926;SDS011;61071;51.618;19.388;2023-01-06T03:18:47;8.13;;;5.03;;
72926;SDS011;61071;51.618;19.388;2023-01-06T03:21:23;7.53;;;4.95;;
72926;SDS011;61071;51.618;19.388;2023-01-06T03:23:56;7.45;;;5.05;;
72926;SDS011;61071;51.618;19.388;2023-01-06T03:26:23;7.22;;;5.20;;
72926;SDS011;61071;51.618;19.388;2023-01-06T03:28:49;8.57;;;6.35;;
72926;SDS011;61071;51.618;19.388;2023-01-06T03:31:28;13.77;;;8.27;;
72926;SDS011;61071;51.618;19.388;2023-01-06T03:34:07;14.98;;;8.95;;
72926;SDS011;61071;51.618;19.388;2023-01-06T03:37:05;14.95;;;8.32;;
72926;SDS011;61071;51.618;19.388;2023-01-06T03:42:36;12.63;;;7.88;;
72926;SDS011;61071;51.618;19.388;2023-01-06T03:51:56;10.40;;;7.25;;
72926;SDS011;61071;51.618;19.388;2023-01-06T03:57:30;12.77;;;9.27;;
72926;SDS011;61071;51.618;19.388;2023-01-06T04:00:11;12.00;;;7.75;;
72926;SDS011;61071;51.618;19.388;2023-01-06T04:02:43;12.73;;;8.32;;
72926;SDS011;61071;51.618;19.388;2023-01-06T04:05:11;10.95;;;7.60;;
72926;SDS011;61071;51.618;19.388;2023-01-06T04:07:39;10.10;;;7.65;;
72926;SDS011;61071;51.618;19.388;2023-01-06T04:10:07;9.65;;;5.45;;
72926;SDS011;61071;51.618;19.388;2023-01-06T04:12:34;10.68;;;6.32;;
72926;SDS011;61071;51.618;19.388;2023-01-06T04:15:10;12.27;;;8.23;;
72926;SDS011;61071;51.618;19.388;2023-01-06T04:17:37;10.75;;;7.07;;
72926;SDS011;61071;51.618;19.388;2023-01-06T04:20:05;10.45;;;7.85;;
72926;SDS011;61071;51.618;19.388;2023-01-06T04:22:34;9.60;;;7.35;;
72926;SDS011;61071;51.618;19.388;2023-01-06T04:25:00;11.55;;;7.00;;
72926;SDS011;61071;51.618;19.388;2023-01-06T04:27:26;9.20;;;7.18;;
72926;SDS011;61071;51.618;19.388;2023-01-06T04:29:52;11.30;;;7.22;;
72926;SDS011;61071;51.618;19.388;2023-01-06T04:32:18;8.55;;;5.65;;
72926;SDS011;61071;51.618;19.388;2023-01-06T04:34:44;13.60;;;6.38;;
72926;SDS011;61071;51.618;19.388;2023-01-06T04:37:09;8.07;;;5.32;;
72926;SDS011;61071;51.618;19.388;2023-01-06T04:39:35;7.90;;;5.38;;
72926;SDS011;61071;51.618;19.388;2023-01-06T04:42:00;7.95;;;5.82;;
72926;SDS011;61071;51.618;19.388;2023-01-06T04:44:26;7.72;;;5.03;;
72926;SDS011;61071;51.618;19.388;2023-01-06T04:46:51;10.02;;;6.25;;
72926;SDS011;61071;51.618;19.388;2023-01-06T04:49:17;8.15;;;5.35;;
72926;SDS011;61071;51.618;19.388;2023-01-06T04:51:43;7.82;;;5.10;;
72926;SDS011;61071;51.618;19.388;2023-01-06T04:54:08;9.05;;;5.70;;
72926;SDS011;61071;51.618;19.388;2023-01-06T04:56:34;8.27;;;5.78;;
72926;SDS011;61071;51.618;19.388;2023-01-06T04:59:00;10.25;;;6.70;;
72926;SDS011;61071;51.618;19.388;2023-01-06T05:01:25;11.13;;;7.70;;
72926;SDS011;61071;51.618;19.388;2023-01-06T05:03:51;11.77;;;7.03;;
72926;SDS011;61071;51.618;19.388;2023-01-06T05:06:18;10.30;;;6.78;;
72926;SDS011;61071;51.618;19.388;2023-01-06T05:08:44;10.20;;;6.75;;
72926;SDS011;61071;51.618;19.388;2023-01-06T05:11:15;12.23;;;7.53;;
72926;SDS011;61071;51.618;19.388;2023-01-06T05:13:46;10.70;;;7.45;;
72926;SDS011;61071;51.618;19.388;2023-01-06T05:18:42;9.73;;;6.60;;
72926;SDS011;61071;51.618;19.388;2023-01-06T05:21:08;10.55;;;6.53;;
72926;SDS011;61071;51.618;19.388;2023-01-06T05:23:35;11.57;;;7.63;;
72926;SDS011;61071;51.618;19.388;2023-01-06T05:26:02;11.02;;;7.68;;
72926;SDS011;61071;51.618;19.388;2023-01-06T05:28:29;13.82;;;8.68;;
72926;SDS011;61071;51.618;19.388;2023-01-06T05:31:01;17.70;;;10.32;;
72926;SDS011;61071;51.618;19.388;2023-01-06T05:33:32;17.98;;;10.93;;
72926;SDS011;61071;51.618;19.388;2023-01-06T05:35:59;13.07;;;8.68;;
72926;SDS011;61071;51.618;19.388;2023-01-06T05:38:34;13.65;;;8.35;;
72926;SDS011;61071;51.618;19.388;2023-01-06T05:40:59;10.98;;;7.78;;
72926;SDS011;61071;51.618;19.388;2023-01-06T05:43:26;12.13;;;7.43;;
72926;SDS011;61071;51.618;19.388;2023-01-06T05:45:53;15.60;;;10.68;;
72926;SDS011;61071;51.618;19.388;2023-01-06T05:48:22;28.08;;;13.40;;
72926;SDS011;61071;51.618;19.388;2023-01-06T05:50:51;18.58;;;10.48;;
72926;SDS011;61071;51.618;19.388;2023-01-06T05:53:17;18.25;;;10.38;;
72926;SDS011;61071;51.618;19.388;2023-01-06T05:55:42;14.93;;;8.85;;
72926;SDS011;61071;51.618;19.388;2023-01-06T05:58:08;11.80;;;6.50;;
72926;SDS011;61071;51.618;19.388;2023-01-06T06:00:34;15.95;;;9.65;;
72926;SDS011;61071;51.618;19.388;2023-01-06T06:02:59;13.10;;;7.90;;
72926;SDS011;61071;51.618;19.388;2023-01-06T06:05:25;13.88;;;7.00;;
72926;SDS011;61071;51.618;19.388;2023-01-06T06:07:54;12.02;;;7.78;;
72926;SDS011;61071;51.618;19.388;2023-01-06T06:10:21;10.80;;;7.40;;
72926;SDS011;61071;51.618;19.388;2023-01-06T06:12:49;13.07;;;8.07;;
72926;SDS011;61071;51.618;19.388;2023-01-06T06:15:16;16.08;;;9.65;;
72926;SDS011;61071;51.618;19.388;2023-01-06T06:17:43;15.02;;;9.63;;
72926;SDS011;61071;51.618;19.388;2023-01-06T06:20:08;15.88;;;9.00;;
72926;SDS011;61071;51.618;19.388;2023-01-06T06:22:34;14.77;;;9.15;;
72926;SDS011;61071;51.618;19.388;2023-01-06T06:25:00;15.93;;;9.55;;
72926;SDS011;61071;51.618;19.388;2023-01-06T06:27:26;17.35;;;10.68;;
72926;SDS011;61071;51.618;19.388;2023-01-06T06:29:52;21.90;;;14.18;;
72926;SDS011;61071;51.618;19.388;2023-01-06T06:32:17;25.25;;;14.82;;
72926;SDS011;61071;51.618;19.388;2023-01-06T06:34:43;17.35;;;10.15;;
72926;SDS011;61071;51.618;19.388;2023-01-06T06:37:09;14.82;;;8.90;;
72926;SDS011;61071;51.618;19.388;2023-01-06T06:39:34;17.23;;;10.95;;
72926;SDS011;61071;51.618;19.388;2023-01-06T06:42:00;14.75;;;8.80;;
72926;SDS011;61071;51.618;19.388;2023-01-06T06:44:25;17.73;;;9.48;;
72926;SDS011;61071;51.618;19.388;2023-01-06T06:46:51;16.80;;;10.55;;
72926;SDS011;61071;51.618;19.388;2023-01-06T06:49:17;16.77;;;9.98;;
72926;SDS011;61071;51.618;19.388;2023-01-06T06:51:42;15.63;;;10.27;;
72926;SDS011;61071;51.618;19.388;2023-01-06T06:54:11;16.17;;;10.32;;
72926;SDS011;61071;51.618;19.388;2023-01-06T06:56:37;17.70;;;11.63;;
72926;SDS011;61071;51.618;19.388;2023-01-06T06:59:03;19.55;;;11.80;;
72926;SDS011;61071;51.618;19.388;2023-01-06T07:01:29;22.15;;;14.32;;
72926;SDS011;61071;51.618;19.388;2023-01-06T07:03:56;24.38;;;16.80;;
72926;SDS011;61071;51.618;19.388;2023-01-06T07:06:22;21.58;;;12.98;;
72926;SDS011;61071;51.618;19.388;2023-01-06T07:08:51;20.50;;;11.70;;
72926;SDS011;61071;51.618;19.388;2023-01-06T07:11:17;23.08;;;13.95;;
72926;SDS011;61071;51.618;19.388;2023-01-06T07:13:44;24.55;;;15.00;;
72926;SDS011;61071;51.618;19.388;2023-01-06T07:16:10;21.35;;;12.75;;
72926;SDS011;61071;51.618;19.388;2023-01-06T07:18:36;27.27;;;14.68;;
72926;SDS011;61071;51.618;19.388;2023-01-06T07:21:02;22.50;;;14.35;;
72926;SDS011;61071;51.618;19.388;2023-01-06T07:23:28;20.17;;;12.32;;
72926;SDS011;61071;51.618;19.388;2023-01-06T07:25:58;19.80;;;12.43;;
72926;SDS011;61071;51.618;19.388;2023-01-06T07:28:26;21.58;;;15.05;;
72926;SDS011;61071;51.618;19.388;2023-01-06T07:30:53;25.25;;;15.10;;
72926;SDS011;61071;51.618;19.388;2023-01-06T07:33:19;22.73;;;14.35;;
72926;SDS011;61071;51.618;19.388;2023-01-06T07:35:46;20.20;;;13.48;;
72926;SDS011;61071;51.618;19.388;2023-01-06T07:38:15;27.95;;;14.60;;
72926;SDS011;61071;51.618;19.388;2023-01-06T07:40:41;22.17;;;12.30;;
72926;SDS011;61071;51.618;19.388;2023-01-06T07:43:07;21.50;;;12.45;;
72926;SDS011;61071;51.618;19.388;2023-01-06T07:45:35;23.23;;;13.10;;
72926;SDS011;61071;51.618;19.388;2023-01-06T07:48:01;23.77;;;12.77;;
72926;SDS011;61071;51.618;19.388;2023-01-06T07:50:28;20.95;;;12.90;;
72926;SDS011;61071;51.618;19.388;2023-01-06T07:52:58;23.92;;;13.02;;
72926;SDS011;61071;51.618;19.388;2023-01-06T07:55:26;31.48;;;15.77;;
72926;SDS011;61071;51.618;19.388;2023-01-06T07:57:53;27.30;;;15.10;;
72926;SDS011;61071;51.618;19.388;2023-01-06T08:00:19;34.63;;;16.63;;
72926;SDS011;61071;51.618;19.388;2023-01-06T08:02:45;26.55;;;15.48;;
72926;SDS011;61071;51.618;19.388;2023-01-06T08:05:10;22.48;;;13.40;;
72926;SDS011;61071;51.618;19.388;2023-01-06T08:07:36;19.83;;;12.25;;
72926;SDS011;61071;51.618;19.388;2023-01-06T08:10:02;24.48;;;17.05;;
72926;SDS011;61071;51.618;19.388;2023-01-06T08:12:28;24.67;;;15.43;;
72926;SDS011;61071;51.618;19.388;2023-01-06T08:14:53;19.92;;;13.27;;
72926;SDS011;61071;51.618;19.388;2023-01-06T08:17:19;23.92;;;13.63;;
72926;SDS011;61071;51.618;19.388;2023-01-06T08:19:44;13.73;;;9.40;;
72926;SDS011;61071;51.618;19.388;2023-01-06T08:22:10;17.20;;;10.48;;
72926;SDS011;61071;51.618;19.388;2023-01-06T08:24:36;21.20;;;11.38;;
72926;SDS011;61071;51.618;19.388;2023-01-06T08:27:01;23.90;;;13.98;;
72926;SDS011;61071;51.618;19.388;2023-01-06T08:29:27;37.25;;;21.52;;
72926;SDS011;61071;51.618;19.388;2023-01-06T08:31:53;43.30;;;21.45;;
72926;SDS011;61071;51.618;19.388;2023-01-06T08:34:19;27.48;;;16.60;;
72926;SDS011;61071;51.618;19.388;2023-01-06T08:36:44;28.30;;;13.35;;
72926;SDS011;61071;51.618;19.388;2023-01-06T08:39:11;24.33;;;13.55;;
72926;SDS011;61071;51.618;19.388;2023-01-06T08:41:38;22.70;;;13.63;;
72926;SDS011;61071;51.618;19.388;2023-01-06T08:44:05;19.05;;;10.52;;
72926;SDS011;61071;51.618;19.388;2023-01-06T08:46:31;21.10;;;11.20;;
72926;SDS011;61071;51.618;19.388;2023-01-06T08:48:58;26.38;;;14.27;;
72926;SDS011;61071;51.618;19.388;2023-01-06T08:51:24;27.60;;;13.25;;
72926;SDS011;61071;51.618;19.388;2023-01-06T08:53:52;19.23;;;11.30;;
72926;SDS011;61071;51.618;19.388;2023-01-06T08:56:20;18.02;;;10.40;;
72926;SDS011;61071;51.618;19.388;2023-01-06T08:58:56;16.40;;;9.23;;
72926;SDS011;61071;51.618;19.388;2023-01-06T09:01:26;15.65;;;8.25;;
72926;SDS011;61071;51.618;19.388;2023-01-06T09:03:59;13.80;;;7.82;;
72926;SDS011;61071;51.618;19.388;2023-01-06T09:06:29;13.13;;;7.70;;
72926;SDS011;61071;51.618;19.388;2023-01-06T09:08:55;12.82;;;7.70;;
72926;SDS011;61071;51.618;19.388;2023-01-06T09:11:22;11.45;;;6.85;;
72926;SDS011;61071;51.618;19.388;2023-01-06T09:13:48;9.45;;;6.13;;
72926;SDS011;61071;51.618;19.388;2023-01-06T09:16:15;9.88;;;6.13;;
72926;SDS011;61071;51.618;19.388;2023-01-06T09:18:42;7.35;;;5.43;;
72926;SDS011;61071;51.618;19.388;2023-01-06T09:21:21;7.53;;;5.22;;
72926;SDS011;61071;51.618;19.388;2023-01-06T09:23:48;7.97;;;4.88;;
72926;SDS011;61071;51.618;19.388;2023-01-06T09:26:15;7.15;;;4.65;;
72926;SDS011;61071;51.618;19.388;2023-01-06T09:28:41;6.35;;;4.60;;
72926;SDS011;61071;51.618;19.388;2023-01-06T09:31:08;7.85;;;4.90;;
72926;SDS011;61071;51.618;19.388;2023-01-06T09:33:34;5.97;;;4.50;;
72926;SDS011;61071;51.618;19.388;2023-01-06T09:36:01;7.25;;;5.28;;
72926;SDS011;61071;51.618;19.388;2023-01-06T09:38:27;6.30;;;4.47;;
72926;SDS011;61071;51.618;19.388;2023-01-06T09:46:19;5.20;;;4.22;;
72926;SDS011;61071;51.618;19.388;2023-01-06T09:48:57;5.75;;;3.80;;
72926;SDS011;61071;51.618;19.388;2023-01-06T09:51:43;6.95;;;4.55;;
72926;SDS011;61071;51.618;19.388;2023-01-06T09:54:17;7.63;;;4.32;;
72926;SDS011;61071;51.618;19.388;2023-01-06T09:57:05;6.75;;;4.72;;
72926;SDS011;61071;51.618;19.388;2023-01-06T09:59:43;7.35;;;5.03;;
72926;SDS011;61071;51.618;19.388;2023-01-06T10:02:26;7.43;;;5.53;;
72926;SDS011;61071;51.618;19.388;2023-01-06T10:09:02;10.02;;;7.00;;
72926;SDS011;61071;51.618;19.388;2023-01-06T10:12:03;10.50;;;7.22;;
72926;SDS011;61071;51.618;19.388;2023-01-06T10:17:27;11.60;;;7.78;;
72926;SDS011;61071;51.618;19.388;2023-01-06T10:20:49;10.52;;;7.32;;
72926;SDS011;61071;51.618;19.388;2023-01-06T10:26:30;10.52;;;7.57;;
72926;SDS011;61071;51.618;19.388;2023-01-06T10:29:12;14.15;;;9.10;;
72926;SDS011;61071;51.618;19.388;2023-01-06T10:31:43;13.15;;;8.90;;
72926;SDS011;61071;51.618;19.388;2023-01-06T10:34:16;15.95;;;9.40;;
72926;SDS011;61071;51.618;19.388;2023-01-06T10:36:56;13.02;;;8.90;;
72926;SDS011;61071;51.618;19.388;2023-01-06T10:39:38;13.18;;;8.93;;
72926;SDS011;61071;51.618;19.388;2023-01-06T10:45:24;12.23;;;8.20;;
72926;SDS011;61071;51.618;19.388;2023-01-06T10:47:55;12.55;;;7.25;;
72926;SDS011;61071;51.618;19.388;2023-01-06T10:50:22;9.50;;;6.90;;
72926;SDS011;61071;51.618;19.388;2023-01-06T10:52:48;13.57;;;8.07;;
72926;SDS011;61071;51.618;19.388;2023-01-06T10:57:51;12.45;;;6.65;;
72926;SDS011;61071;51.618;19.388;2023-01-06T11:00:24;11.57;;;7.25;;
72926;SDS011;61071;51.618;19.388;2023-01-06T11:02:54;11.63;;;6.95;;
72926;SDS011;61071;51.618;19.388;2023-01-06T11:05:29;9.95;;;6.70;;
72926;SDS011;61071;51.618;19.388;2023-01-06T11:10:30;9.63;;;7.10;;
72926;SDS011;61071;51.618;19.388;2023-01-06T11:13:02;13.50;;;7.20;;
72926;SDS011;61071;51.618;19.388;2023-01-06T11:15:38;11.70;;;7.45;;
72926;SDS011;61071;51.618;19.388;2023-01-06T11:18:16;11.60;;;7.35;;
72926;SDS011;61071;51.618;19.388;2023-01-06T11:21:03;12.93;;;7.72;;
72926;SDS011;61071;51.618;19.388;2023-01-06T11:23:43;15.57;;;8.93;;
72926;SDS011;61071;51.618;19.388;2023-01-06T11:28:39;12.68;;;8.07;;
72926;SDS011;61071;51.618;19.388;2023-01-06T11:33:48;10.88;;;7.78;;
72926;SDS011;61071;51.618;19.388;2023-01-06T11:36:18;11.40;;;7.05;;
72926;SDS011;61071;51.618;19.388;2023-01-06T11:41:33;10.00;;;7.20;;
72926;SDS011;61071;51.618;19.388;2023-01-06T11:44:16;10.10;;;6.88;;
72926;SDS011;61071;51.618;19.388;2023-01-06T11:46:50;10.02;;;7.03;;
72926;SDS011;61071;51.618;19.388;2023-01-06T11:49:30;9.20;;;7.05;;
72926;SDS011;61071;51.618;19.388;2023-01-06T11:54:41;10.75;;;7.25;;
72926;SDS011;61071;51.618;19.388;2023-01-06T11:57:13;10.77;;;7.60;;
72926;SDS011;61071;51.618;19.388;2023-01-06T11:59:55;10.80;;;6.80;;
72926;SDS011;61071;51.618;19.388;2023-01-06T12:02:39;11.43;;;7.13;;
72926;SDS011;61071;51.618;19.388;2023-01-06T12:08:46;11.80;;;7.88;;
72926;SDS011;61071;51.618;19.388;2023-01-06T12:11:02;11.63;;;7.70;;
72926;SDS011;61071;51.618;19.388;2023-01-06T12:13:42;11.98;;;7.85;;
72926;SDS011;61071;51.618;19.388;2023-01-06T12:16:12;11.50;;;7.82;;
72926;SDS011;61071;51.618;19.388;2023-01-06T12:18:47;10.90;;;7.50;;
72926;SDS011;61071;51.618;19.388;2023-01-06T12:21:18;10.90;;;8.20;;
72926;SDS011;61071;51.618;19.388;2023-01-06T12:23:55;10.90;;;7.28;;
72926;SDS011;61071;51.618;19.388;2023-01-06T12:26:26;12.05;;;7.47;;
72926;SDS011;61071;51.618;19.388;2023-01-06T12:28:54;10.95;;;7.03;;
72926;SDS011;61071;51.618;19.388;2023-01-06T12:34:39;11.23;;;7.82;;
72926;SDS011;61071;51.618;19.388;2023-01-06T12:43:15;10.43;;;6.90;;
72926;SDS011;61071;51.618;19.388;2023-01-06T12:48:40;11.90;;;7.40;;
72926;SDS011;61071;51.618;19.388;2023-01-06T12:51:32;9.18;;;6.35;;
72926;SDS011;61071;51.618;19.388;2023-01-06T12:54:05;10.80;;;6.97;;
72926;SDS011;61071;51.618;19.388;2023-01-06T12:59:43;9.52;;;6.53;;
72926;SDS011;61071;51.618;19.388;2023-01-06T13:10:36;10.38;;;7.15;;
72926;SDS011;61071;51.618;19.388;2023-01-06T13:16:14;10.90;;;7.10;;
72926;SDS011;61071;51.618;19.388;2023-01-06T13:18:54;10.63;;;6.43;;
72926;SDS011;61071;51.618;19.388;2023-01-06T13:21:36;9.80;;;6.57;;
72926;SDS011;61071;51.618;19.388;2023-01-06T13:32:55;20.05;;;7.55;;
72926;SDS011;61071;51.618;19.388;2023-01-06T13:35:48;10.77;;;8.00;;
72926;SDS011;61071;51.618;19.388;2023-01-06T13:41:30;15.02;;;8.70;;
72926;SDS011;61071;51.618;19.388;2023-01-06T13:46:29;16.30;;;9.38;;
72926;SDS011;61071;51.618;19.388;2023-01-06T13:48:59;17.27;;;9.55;;
72926;SDS011;61071;51.618;19.388;2023-01-06T13:51:30;13.70;;;9.60;;
72926;SDS011;61071;51.618;19.388;2023-01-06T13:54:00;16.20;;;9.37;;
72926;SDS011;61071;51.618;19.388;2023-01-06T13:56:33;15.45;;;9.50;;
72926;SDS011;61071;51.618;19.388;2023-01-06T13:59:16;15.75;;;9.55;;
72926;SDS011;61071;51.618;19.388;2023-01-06T14:01:46;13.63;;;8.85;;
72926;SDS011;61071;51.618;19.388;2023-01-06T14:06:56;15.85;;;8.80;;
72926;SDS011;61071;51.618;19.388;2023-01-06T14:09:24;14.38;;;8.93;;
72926;SDS011;61071;51.618;19.388;2023-01-06T14:11:51;14.55;;;9.32;;
72926;SDS011;61071;51.618;19.388;2023-01-06T14:14:24;14.90;;;9.63;;
72926;SDS011;61071;51.618;19.388;2023-01-06T14:16:54;16.63;;;10.02;;
72926;SDS011;61071;51.618;19.388;2023-01-06T14:19:35;16.23;;;9.80;;
72926;SDS011;61071;51.618;19.388;2023-01-06T14:24:50;17.10;;;10.40;;
72926;SDS011;61071;51.618;19.388;2023-01-06T14:30:20;17.52;;;11.05;;
72926;SDS011;61071;51.618;19.388;2023-01-06T14:35:23;21.73;;;10.75;;
72926;SDS011;61071;51.618;19.388;2023-01-06T14:38:00;19.40;;;11.13;;
72926;SDS011;61071;51.618;19.388;2023-01-06T14:40:38;17.38;;;10.57;;
72926;SDS011;61071;51.618;19.388;2023-01-06T14:46:37;18.08;;;11.05;;
72926;SDS011;61071;51.618;19.388;2023-01-06T14:52:34;17.77;;;11.73;;
72926;SDS011;61071;51.618;19.388;2023-01-06T14:55:13;19.00;;;12.18;;
72926;SDS011;61071;51.618;19.388;2023-01-06T14:57:43;18.20;;;11.43;;
72926;SDS011;61071;51.618;19.388;2023-01-06T15:00:16;19.38;;;11.23;;
72926;SDS011;61071;51.618;19.388;2023-01-06T15:05:56;21.48;;;11.35;;
72926;SDS011;61071;51.618;19.388;2023-01-06T15:08:43;19.25;;;11.48;;
72926;SDS011;61071;51.618;19.388;2023-01-06T15:11:51;21.52;;;11.52;;
72926;SDS011;61071;51.618;19.388;2023-01-06T15:14:05;20.58;;;10.88;;
72926;SDS011;61071;51.618;19.388;2023-01-06T15:16:51;19.17;;;11.23;;
72926;SDS011;61071;51.618;19.388;2023-01-06T15:19:19;17.50;;;10.73;;
72926;SDS011;61071;51.618;19.388;2023-01-06T15:21:45;19.63;;;12.07;;
72926;SDS011;61071;51.618;19.388;2023-01-06T15:24:18;20.25;;;11.90;;
72926;SDS011;61071;51.618;19.388;2023-01-06T15:26:48;20.35;;;11.70;;
72926;SDS011;61071;51.618;19.388;2023-01-06T15:29:17;21.17;;;12.85;;
72926;SDS011;61071;51.618;19.388;2023-01-06T15:31:47;20.65;;;13.05;;
72926;SDS011;61071;51.618;19.388;2023-01-06T15:34:17;18.95;;;11.10;;
72926;SDS011;61071;51.618;19.388;2023-01-06T15:36:47;24.52;;;13.43;;
72926;SDS011;61071;51.618;19.388;2023-01-06T15:39:18;26.77;;;14.55;;
72926;SDS011;61071;51.618;19.388;2023-01-06T15:41:51;21.77;;;13.27;;
72926;SDS011;61071;51.618;19.388;2023-01-06T15:44:22;23.52;;;14.45;;
72926;SDS011;61071;51.618;19.388;2023-01-06T15:46:55;22.40;;;14.32;;
72926;SDS011;61071;51.618;19.388;2023-01-06T15:50:02;23.33;;;12.90;;
72926;SDS011;61071;51.618;19.388;2023-01-06T15:52:35;23.23;;;13.68;;
72926;SDS011;61071;51.618;19.388;2023-01-06T15:58:08;23.15;;;13.63;;
72926;SDS011;61071;51.618;19.388;2023-01-06T16:01:00;24.88;;;14.30;;
72926;SDS011;61071;51.618;19.388;2023-01-06T16:03:37;29.30;;;13.32;;
72926;SDS011;61071;51.618;19.388;2023-01-06T16:06:08;24.92;;;13.20;;
72926;SDS011;61071;51.618;19.388;2023-01-06T16:08:37;22.13;;;12.35;;
72926;SDS011;61071;51.618;19.388;2023-01-06T16:14:33;23.58;;;11.50;;
72926;SDS011;61071;51.618;19.388;2023-01-06T16:17:08;22.08;;;12.95;;
72926;SDS011;61071;51.618;19.388;2023-01-06T16:19:51;22.38;;;12.63;;
72926;SDS011;61071;51.618;19.388;2023-01-06T16:25:45;19.73;;;11.75;;
72926;SDS011;61071;51.618;19.388;2023-01-06T16:27:49;21.25;;;10.82;;
72926;SDS011;61071;51.618;19.388;2023-01-06T16:30:19;21.63;;;10.93;;
72926;SDS011;61071;51.618;19.388;2023-01-06T16:32:54;20.85;;;11.00;;
72926;SDS011;61071;51.618;19.388;2023-01-06T16:35:22;24.85;;;10.73;;
72926;SDS011;61071;51.618;19.388;2023-01-06T16:37:51;18.63;;;10.93;;
72926;SDS011;61071;51.618;19.388;2023-01-06T16:40:18;20.13;;;11.57;;
72926;SDS011;61071;51.618;19.388;2023-01-06T16:42:47;22.88;;;11.30;;
72926;SDS011;61071;51.618;19.388;2023-01-06T16:45:20;21.25;;;11.93;;
72926;SDS011;61071;51.618;19.388;2023-01-06T16:47:52;21.98;;;12.20;;
72926;SDS011;61071;51.618;19.388;2023-01-06T16:50:24;21.27;;;11.93;;
72926;SDS011;61071;51.618;19.388;2023-01-06T16:58:00;20.35;;;12.18;;
72926;SDS011;61071;51.618;19.388;2023-01-06T17:00:40;22.38;;;13.60;;
72926;SDS011;61071;51.618;19.388;2023-01-06T17:03:12;25.05;;;13.38;;
72926;SDS011;61071;51.618;19.388;2023-01-06T17:05:40;20.17;;;13.38;;
72926;SDS011;61071;51.618;19.388;2023-01-06T17:08:08;27.20;;;13.77;;
72926;SDS011;61071;51.618;19.388;2023-01-06T17:10:39;25.77;;;14.93;;
72926;SDS011;61071;51.618;19.388;2023-01-06T17:13:09;25.77;;;14.30;;
72926;SDS011;61071;51.618;19.388;2023-01-06T17:16:20;23.52;;;14.55;;
72926;SDS011;61071;51.618;19.388;2023-01-06T17:21:29;25.77;;;15.25;;
72926;SDS011;61071;51.618;19.388;2023-01-06T17:26:57;31.77;;;18.70;;
72926;SDS011;61071;51.618;19.388;2023-01-06T17:29:39;31.75;;;16.88;;
72926;SDS011;61071;51.618;19.388;2023-01-06T17:32:09;32.67;;;18.70;;
72926;SDS011;61071;51.618;19.388;2023-01-06T17:34:41;33.67;;;18.80;;